Time;durP1;ratioP1;P1;durP2;ratioP2;P2;SDS_P1;SDS_P2;PMS_P1;PMS_P2;Temp;Humidity;BMP_temperature;BMP_pressure;BME280_temperature;BME280_humidity;BME280_pressure;Samples;Min_cycle;Max_cycle;Signal;HPM_P1;HPM_P2
2022/09/14 00:00:41;;;;;;;8.05;1.60;;;;;;;27.41;68.89;100720.56;4997809;28;20022;-48
2022/09/14 00:03:07;;;;;;;;;;;;;;;27.75;67.63;100721.94;5004015;28;20129;-48
2022/09/14 00:05:35;;;;;;;4.90;1.50;;;;;;;27.19;69.58;100719.44;5003303;28;19925;-48
2022/09/14 00:08:02;;;;;;;5.50;1.20;;;;;;;27.29;70.08;100707.38;4995785;28;20043;-49
2022/09/14 00:10:28;;;;;;;8.50;1.53;;;;;;;27.60;68.07;100712.94;5000537;28;20039;-50
2022/09/14 00:12:53;;;;;;;6.68;1.65;;;;;;;27.30;68.53;100709.00;4996542;28;20079;-51
2022/09/14 00:15:19;;;;;;;6.88;1.35;;;;;;;27.61;67.41;100708.28;4999244;28;20074;-50
2022/09/14 00:17:44;;;;;;;9.18;1.90;;;;;;;27.19;69.52;100700.22;5003355;28;20042;-48
2022/09/14 00:20:10;;;;;;;9.63;1.52;;;;;;;26.99;70.79;100702.34;5009316;28;20037;-52
2022/09/14 00:22:36;;;;;;;;;;;;;;;27.14;69.42;100692.13;4998721;28;20038;-52
2022/09/14 00:25:01;;;;;;;7.57;1.73;;;;;;;27.12;69.12;100695.19;4996717;28;19914;-53
2022/09/14 00:27:27;;;;;;;8.68;1.52;;;;;;;26.94;71.01;100691.47;5006365;28;20052;-51
2022/09/14 00:29:52;;;;;;;7.35;1.75;;;;;;;27.24;69.62;100686.38;4995831;28;20058;-51
2022/09/14 00:32:18;;;;;;;8.82;1.50;;;;;;;26.73;70.89;100683.69;4989062;28;20104;-51
2022/09/14 00:34:44;;;;;;;4.63;0.95;;;;;;;26.73;71.37;100677.41;4988909;28;20053;-54
2022/09/14 00:37:10;;;;;;;6.20;1.20;;;;;;;26.69;72.83;100668.97;4997631;28;20034;-53
2022/09/14 00:39:36;;;;;;;4.13;1.40;;;;;;;26.62;72.65;100668.59;4999666;28;20032;-48
2022/09/14 00:42:04;;;;;;;3.95;1.55;;;;;;;27.04;71.22;100676.72;5002315;28;20050;-48
2022/09/14 00:44:30;;;;;;;8.83;2.00;;;;;;;27.27;70.00;100663.81;4998072;28;20034;-49
2022/09/14 00:46:59;;;;;;;9.18;2.50;;;;;;;27.22;69.71;100666.69;5006821;28;20038;-51
2022/09/14 00:49:37;;;;;;;8.00;1.77;;;;;;;26.44;74.23;100659.41;4995214;28;20030;-48
2022/09/14 00:52:17;;;;;;;7.53;1.70;;;;;;;26.47;74.17;100651.34;4997896;28;20092;-51
2022/09/14 00:54:53;;;;;;;3.90;0.90;;;;;;;26.62;73.43;100655.69;5015175;28;20041;-48
2022/09/14 00:57:19;;;;;;;8.37;1.63;;;;;;;26.60;73.61;100652.44;4990615;28;20054;-46
2022/09/14 00:59:49;;;;;;;11.90;1.80;;;;;;;26.31;74.86;100648.16;5006791;28;20037;-49
2022/09/14 01:02:18;;;;;;;11.47;1.63;;;;;;;26.25;75.58;100646.63;5000008;28;20034;-47
2022/09/14 01:04:44;;;;;;;5.77;1.60;;;;;;;26.29;75.48;100644.06;5000857;28;20039;-47
2022/09/14 01:07:19;;;;;;;;;;;;;;;26.36;74.89;100649.16;5007347;28;20064;-50
2022/09/14 01:10:16;;;;;;;8.57;1.60;;;;;;;26.23;75.52;100635.19;4999520;28;19926;-46
2022/09/14 01:13:05;;;;;;;5.38;1.25;;;;;;;26.15;76.80;100636.66;5008064;28;20041;-46
2022/09/14 01:15:47;;;;;;;5.63;1.30;;;;;;;26.04;76.95;100632.50;4998499;28;20038;-50
2022/09/14 01:18:28;;;;;;;8.63;2.23;;;;;;;26.02;77.00;100632.00;4991929;28;20046;-47
2022/09/14 01:21:02;;;;;;;7.23;1.63;;;;;;;26.22;78.45;100635.47;4992786;28;20088;-50
2022/09/14 01:23:54;;;;;;;7.00;1.50;;;;;;;26.28;80.20;100634.22;5006866;28;20052;-47
2022/09/14 01:26:47;;;;;;;6.50;1.37;;;;;;;26.10;84.77;100634.03;5002010;28;20031;-48
2022/09/14 01:29:24;;;;;;;6.07;1.20;;;;;;;25.95;88.23;100631.59;4994435;28;20038;-47
2022/09/14 01:32:06;;;;;;;7.18;1.42;;;;;;;26.23;88.06;100624.22;4991677;28;20038;-48
2022/09/14 01:34:47;;;;;;;10.77;1.50;;;;;;;26.03;87.47;100622.66;5003161;28;20034;-49
2022/09/14 01:37:19;;;;;;;9.63;1.77;;;;;;;26.23;85.60;100623.38;4989532;28;20035;-48
2022/09/14 01:39:51;;;;;;;3.47;1.30;;;;;;;25.69;89.75;100618.44;5005424;28;20042;-47
2022/09/14 01:42:19;;;;;;;5.63;2.00;;;;;;;26.08;87.83;100617.09;4999303;28;20031;-49
2022/09/14 01:44:51;;;;;;;7.53;1.60;;;;;;;25.98;88.00;100611.81;5004955;28;20030;-48
2022/09/14 01:47:30;;;;;;;7.93;1.30;;;;;;;25.44;90.96;100612.28;5000293;28;20060;-48
2022/09/14 01:50:04;;;;;;;9.17;1.60;;;;;;;25.73;89.14;100611.22;5002461;28;20065;-46
2022/09/14 01:52:44;;;;;;;6.30;1.50;;;;;;;25.77;88.14;100604.00;5001583;28;20038;-47
2022/09/14 01:55:17;;;;;;;5.17;1.23;;;;;;;25.75;88.29;100607.06;4998926;28;20029;-47
2022/09/14 01:57:50;;;;;;;4.90;2.00;;;;;;;25.71;89.39;100599.75;4990762;28;20038;-48
2022/09/14 02:00:18;;;;;;;5.47;1.40;;;;;;;25.68;90.91;100589.41;5010926;28;20031;-45
2022/09/14 02:02:53;;;;;;;11.30;1.80;;;;;;;25.71;92.85;100594.28;5001158;28;20044;-48
2022/09/14 02:05:23;;;;;;;4.50;1.73;;;;;;;25.65;93.78;100590.84;5011282;28;20038;-48
2022/09/14 02:07:49;;;;;;;11.00;1.80;;;;;;;25.60;96.01;100590.94;4986527;28;20039;-53
2022/09/14 02:10:16;;;;;;;11.05;1.92;;;;;;;25.77;95.41;100602.09;4992396;28;20057;-49
2022/09/14 02:12:42;;;;;;;6.50;1.57;;;;;;;25.67;95.83;100599.53;4995862;28;20033;-48
2022/09/14 02:15:09;;;;;;;;;;;;;;;25.53;96.76;100598.75;5002226;28;20053;-51
2022/09/14 02:17:36;;;;;;;7.90;1.83;;;;;;;25.46;98.50;100597.16;4993687;28;19977;-48
2022/09/14 02:20:06;;;;;;;5.47;1.40;;;;;;;25.42;99.80;100596.16;5002172;28;20023;-49
2022/09/14 02:22:32;;;;;;;10.00;1.67;;;;;;;25.66;99.94;100592.44;5010213;28;20043;-51
2022/09/14 02:24:58;;;;;;;;;;;;;;;25.56;100.00;100592.66;4999582;28;20057;-51
2022/09/14 02:27:24;;;;;;;8.20;2.37;;;;;;;25.47;99.54;100585.13;4999833;28;19913;-51
2022/09/14 02:29:51;;;;;;;5.28;1.48;;;;;;;25.72;98.67;100591.25;4994095;28;20039;-51
2022/09/14 02:32:34;;;;;;;6.83;1.73;;;;;;;25.68;98.70;100579.25;4989064;28;20084;-46
2022/09/14 02:35:34;;;;;;;9.33;1.83;;;;;;;25.27;100.00;100569.09;4992083;28;20039;-49
2022/09/14 02:38:09;;;;;;;7.47;1.90;;;;;;;25.28;100.00;100576.97;4998650;28;20057;-49
2022/09/14 02:40:50;;;;;;;13.40;2.37;;;;;;;25.67;98.33;100563.16;5022325;28;20038;-48
2022/09/14 02:43:38;;;;;;;7.33;1.70;;;;;;;25.52;99.84;100558.81;4987875;28;20039;-47
2022/09/14 02:46:14;;;;;;;8.13;2.05;;;;;;;25.51;100.00;100562.66;5007586;28;20034;-47
2022/09/14 02:48:50;;;;;;;7.07;1.75;;;;;;;25.25;100.00;100561.16;4986944;28;20069;-48
2022/09/14 02:51:32;;;;;;;7.43;1.70;;;;;;;25.60;100.00;100569.03;5009562;28;20046;-48
2022/09/14 02:54:03;;;;;;;8.90;2.20;;;;;;;25.28;100.00;100560.56;4990042;28;20054;-49
2022/09/14 02:56:30;;;;;;;9.30;1.83;;;;;;;25.22;100.00;100558.22;4998233;28;20042;-47
2022/09/14 02:58:55;;;;;;;9.00;1.90;;;;;;;25.20;100.00;100553.84;4989729;28;20043;-48
2022/09/14 03:01:23;;;;;;;8.45;1.70;;;;;;;25.56;100.00;100557.88;5002416;28;20077;-48
2022/09/14 03:03:48;;;;;;;9.60;2.30;;;;;;;25.16;100.00;100558.31;4995297;28;20035;-48
2022/09/14 03:06:14;;;;;;;7.10;2.30;;;;;;;25.05;100.00;100557.69;5004737;28;20035;-48
2022/09/14 03:08:40;;;;;;;11.63;1.80;;;;;;;25.00;100.00;100546.84;5011852;28;20042;-46
2022/09/14 03:11:06;;;;;;;8.50;1.67;;;;;;;24.93;100.00;100554.63;5001198;28;20086;-47
2022/09/14 03:13:34;;;;;;;7.28;1.73;;;;;;;24.89;100.00;100551.66;4992808;28;20027;-50
2022/09/14 03:16:09;;;;;;;12.73;1.60;;;;;;;25.04;100.00;100553.31;5001218;28;20039;-51
2022/09/14 03:18:35;;;;;;;8.50;2.47;;;;;;;24.74;100.00;100546.41;4992820;28;20910;-51
2022/09/14 03:21:07;;;;;;;7.80;2.37;;;;;;;25.10;100.00;100547.75;4994480;28;20046;-48
2022/09/14 03:23:38;;;;;;;6.27;2.37;;;;;;;24.87;100.00;100544.88;5012708;28;20060;-50
2022/09/14 03:26:12;;;;;;;5.60;2.03;;;;;;;24.58;100.00;100540.38;4990531;28;20045;-49
2022/09/14 03:28:38;;;;;;;10.60;2.20;;;;;;;24.96;100.00;100526.69;5011911;28;20029;-48
2022/09/14 03:31:06;;;;;;;10.60;2.60;;;;;;;25.06;100.00;100531.16;5003618;28;20064;-48
2022/09/14 03:33:32;;;;;;;11.07;2.90;;;;;;;24.75;100.00;100532.50;5018059;28;20056;-48
2022/09/14 03:35:59;;;;;;;9.35;2.08;;;;;;;25.01;100.00;100534.78;4990504;28;20046;-52
2022/09/14 03:38:28;;;;;;;5.25;2.10;;;;;;;24.81;100.00;100532.41;4991630;28;20050;-47
2022/09/14 03:40:56;;;;;;;9.20;1.80;;;;;;;24.94;100.00;100528.06;4992388;28;20073;-52
2022/09/14 03:43:22;;;;;;;12.40;2.53;;;;;;;25.01;100.00;100528.50;5018239;28;20048;-54
2022/09/14 03:45:48;;;;;;;5.63;1.60;;;;;;;24.89;100.00;100526.22;4992475;28;20031;-51
2022/09/14 03:48:14;;;;;;;10.80;4.25;;;;;;;24.84;100.00;100531.78;4997870;28;20081;-48
2022/09/14 03:50:41;;;;;;;9.60;3.47;;;;;;;25.01;100.00;100526.56;5003081;28;20035;-50
2022/09/14 03:53:07;;;;;;;11.23;3.13;;;;;;;24.94;100.00;100526.16;4991739;28;20034;-53
2022/09/14 03:55:32;;;;;;;5.63;2.08;;;;;;;24.84;100.00;100513.47;4996296;28;20042;-50
2022/09/14 03:57:58;;;;;;;11.38;2.40;;;;;;;24.49;100.00;100521.13;4990163;28;20031;-52
2022/09/14 04:00:24;;;;;;;14.55;6.82;;;;;;;24.75;100.00;100516.09;4992525;28;20033;-50
2022/09/14 04:02:50;;;;;;;9.82;3.97;;;;;;;24.89;100.00;100520.75;4998961;28;20078;-52
2022/09/14 04:05:16;;;;;;;18.55;7.00;;;;;;;24.88;100.00;100519.97;5000671;28;20039;-51
2022/09/14 04:07:41;;;;;;;13.85;6.18;;;;;;;25.16;100.00;100521.94;5002616;28;20091;-47
2022/09/14 04:10:07;;;;;;;15.57;5.87;;;;;;;25.18;100.00;100515.03;4990023;28;20030;-50
2022/09/14 04:12:34;;;;;;;21.33;8.57;;;;;;;24.93;100.00;100508.13;5011412;28;20037;-48
2022/09/14 04:15:00;;;;;;;14.43;6.93;;;;;;;25.11;100.00;100513.81;5021931;28;20035;-49
2022/09/14 04:17:27;;;;;;;19.65;8.65;;;;;;;25.04;100.00;100516.97;4993907;28;20033;-48
2022/09/14 04:19:52;;;;;;;7.23;3.07;;;;;;;24.94;100.00;100519.88;4991928;28;20057;-49
2022/09/14 04:22:18;;;;;;;33.88;15.15;;;;;;;25.06;100.00;100510.06;5016672;28;20094;-51
2022/09/14 04:24:43;;;;;;;19.88;6.68;;;;;;;25.23;100.00;100516.06;4989803;28;20035;-47
2022/09/14 04:27:09;;;;;;;12.57;3.22;;;;;;;24.94;100.00;100503.47;4994045;28;20039;-50
2022/09/14 04:29:35;;;;;;;11.07;3.43;;;;;;;24.78;100.00;100501.00;4991759;28;20077;-50
2022/09/14 04:32:01;;;;;;;7.63;2.08;;;;;;;24.00;100.00;100495.88;4993584;28;20285;-50
2022/09/14 04:34:27;;;;;;;;;;;;;;;23.99;100.00;100478.66;4988883;28;20030;-50
2022/09/14 04:36:52;;;;;;;8.87;2.40;;;;;;;23.92;100.00;100492.69;5000897;28;19921;-47
2022/09/14 04:39:18;;;;;;;17.52;3.70;;;;;;;23.72;100.00;100487.50;5000397;28;20090;-48
2022/09/14 04:41:44;;;;;;;12.10;2.58;;;;;;;24.36;100.00;100486.38;5001645;28;20046;-46
2022/09/14 04:44:10;;;;;;;10.38;2.70;;;;;;;24.44;100.00;100486.47;4993053;28;20027;-50
2022/09/14 04:46:38;;;;;;;16.40;7.63;;;;;;;24.46;100.00;100483.47;5008903;28;20053;-47
2022/09/14 04:49:05;;;;;;;15.83;5.70;;;;;;;24.49;100.00;100491.88;5003461;28;20045;-49
2022/09/14 04:51:32;;;;;;;9.67;4.33;;;;;;;24.57;100.00;100492.31;4992527;28;20050;-48
2022/09/14 04:54:00;;;;;;;20.23;7.13;;;;;;;24.56;100.00;100490.69;4999601;28;20089;-49
2022/09/14 04:56:27;;;;;;;8.50;2.60;;;;;;;24.25;100.00;100485.72;5002591;28;20273;-49
2022/09/14 04:58:58;;;;;;;9.07;2.93;;;;;;;23.92;100.00;100472.78;4989312;28;20030;-51
2022/09/14 05:01:27;;;;;;;9.07;2.67;;;;;;;23.74;100.00;100472.44;4994230;28;20034;-50
2022/09/14 05:03:54;;;;;;;12.90;2.73;;;;;;;23.56;100.00;100471.34;4993159;28;20035;-47
2022/09/14 05:06:25;;;;;;;8.03;3.30;;;;;;;24.10;100.00;100476.63;4990596;28;20035;-49
2022/09/14 05:08:52;;;;;;;9.43;3.37;;;;;;;24.15;100.00;100475.75;4993000;28;20268;-49
2022/09/14 05:11:21;;;;;;;9.73;3.20;;;;;;;24.31;100.00;100489.97;5005233;28;20292;-51
2022/09/14 05:13:47;;;;;;;10.47;3.70;;;;;;;24.26;100.00;100490.06;4995161;28;20043;-48
2022/09/14 05:16:18;;;;;;;14.23;4.22;;;;;;;24.27;100.00;100491.69;4998084;28;20033;-48
2022/09/14 05:18:45;;;;;;;6.87;2.80;;;;;;;24.43;100.00;100484.84;4991206;28;20050;-48
2022/09/14 05:21:14;;;;;;;10.90;2.80;;;;;;;24.48;100.00;100489.44;4996291;28;20262;-50
2022/09/14 05:23:40;;;;;;;10.87;4.90;;;;;;;24.24;100.00;100489.56;4994808;28;20106;-51
2022/09/14 05:26:06;;;;;;;6.57;2.72;;;;;;;24.27;100.00;100489.75;4986933;28;20039;-48
2022/09/14 05:28:33;;;;;;;10.02;2.80;;;;;;;24.59;100.00;100490.91;4997471;28;20042;-51
2022/09/14 05:30:58;;;;;;;10.70;3.13;;;;;;;24.65;100.00;100488.06;5006099;28;20073;-48
2022/09/14 05:33:24;;;;;;;9.48;2.80;;;;;;;24.74;100.00;100486.28;5006375;28;20030;-49
2022/09/14 05:35:50;;;;;;;8.98;2.55;;;;;;;24.62;100.00;100487.56;4994884;28;20095;-51
2022/09/14 05:38:16;;;;;;;6.40;2.40;;;;;;;24.41;100.00;100494.47;5008350;28;20042;-47
2022/09/14 05:40:42;;;;;;;7.00;2.55;;;;;;;24.38;100.00;100498.59;4989619;28;20062;-48
2022/09/14 05:43:08;;;;;;;10.88;2.47;;;;;;;24.24;100.00;100492.28;5000301;28;20034;-51
2022/09/14 05:45:33;;;;;;;;;;;;;;;24.52;100.00;100500.59;4998618;28;20127;-49
2022/09/14 05:48:05;;;;;;;15.60;2.50;;;;;;;24.59;100.00;100484.63;4993458;28;19929;-47
2022/09/14 05:50:32;;;;;;;12.77;2.80;;;;;;;24.56;100.00;100496.94;5004653;28;20068;-48
2022/09/14 05:52:59;;;;;;;8.73;3.00;;;;;;;24.47;100.00;100505.03;5002002;28;20034;-47
2022/09/14 05:55:25;;;;;;;11.73;3.57;;;;;;;24.66;100.00;100495.16;5002274;28;20026;-48
2022/09/14 05:57:51;;;;;;;9.05;3.40;;;;;;;24.65;100.00;100496.28;4997789;28;20117;-50
2022/09/14 06:00:17;;;;;;;15.32;3.80;;;;;;;24.71;100.00;100493.16;5006597;28;20028;-49
2022/09/14 06:02:48;;;;;;;12.30;3.95;;;;;;;24.77;100.00;100492.00;5000577;28;20095;-47
2022/09/14 06:05:14;;;;;;;10.10;3.37;;;;;;;24.53;100.00;100502.22;5006040;28;20044;-48
2022/09/14 06:07:40;;;;;;;14.30;3.53;;;;;;;24.75;100.00;100502.41;4991823;28;20054;-50
2022/09/14 06:10:06;;;;;;;9.57;3.15;;;;;;;24.71;100.00;100495.91;5016189;28;20031;-50
2022/09/14 06:12:32;;;;;;;10.02;2.78;;;;;;;24.62;100.00;100495.78;5000596;28;20053;-47
2022/09/14 06:14:57;;;;;;;7.63;3.03;;;;;;;24.86;100.00;100499.50;5006760;28;20032;-52
2022/09/14 06:17:23;;;;;;;9.40;3.13;;;;;;;24.81;100.00;100496.84;4997463;28;20042;-51
2022/09/14 06:19:49;;;;;;;17.10;3.13;;;;;;;24.80;100.00;100497.97;5009349;28;20086;-49
2022/09/14 06:22:14;;;;;;;11.82;3.10;;;;;;;24.82;100.00;100490.28;4997113;28;20099;-50
2022/09/14 06:24:40;;;;;;;6.55;2.60;;;;;;;24.73;100.00;100490.94;4992851;28;20034;-54
2022/09/14 06:27:07;;;;;;;9.65;2.58;;;;;;;24.71;100.00;100497.81;4998004;28;20035;-49
2022/09/14 06:29:34;;;;;;;5.97;2.47;;;;;;;24.88;100.00;100492.63;5001319;28;20026;-49
2022/09/14 06:31:59;;;;;;;9.73;2.40;;;;;;;24.79;100.00;100497.13;4991396;28;20026;-50
2022/09/14 06:34:24;;;;;;;13.90;2.53;;;;;;;24.88;100.00;100500.00;4999572;28;20094;-47
2022/09/14 06:36:50;;;;;;;11.38;2.25;;;;;;;24.87;100.00;100498.38;4991843;28;20062;-49
2022/09/14 06:39:16;;;;;;;8.73;2.20;;;;;;;24.79;100.00;100501.81;4988910;28;20035;-47
2022/09/14 06:41:42;;;;;;;7.23;2.17;;;;;;;24.66;100.00;100501.44;5005678;28;20033;-51
2022/09/14 06:44:17;;;;;;;4.97;1.97;;;;;;;24.64;100.00;100503.66;4989993;28;20050;-50
2022/09/14 06:46:43;;;;;;;10.63;2.95;;;;;;;24.75;100.00;100502.41;4991920;28;20045;-50
2022/09/14 06:49:11;;;;;;;10.15;2.58;;;;;;;24.71;100.00;100503.28;5001476;28;20038;-50
2022/09/14 06:51:40;;;;;;;6.93;2.50;;;;;;;24.88;100.00;100497.25;4993973;28;20102;-52
2022/09/14 06:54:07;;;;;;;8.87;2.53;;;;;;;24.81;100.00;100496.84;4991037;28;20098;-50
2022/09/14 06:56:38;;;;;;;11.35;3.85;;;;;;;24.66;100.00;100498.69;4996717;28;20042;-49
2022/09/14 06:59:05;;;;;;;9.57;2.00;;;;;;;24.65;100.00;100494.34;5006711;28;20065;-47
2022/09/14 07:01:31;;;;;;;5.20;2.30;;;;;;;24.60;100.00;100498.00;4989862;28;20038;-48
2022/09/14 07:03:59;;;;;;;8.55;2.47;;;;;;;24.77;100.00;100491.16;4995453;28;20031;-49
2022/09/14 07:06:30;;;;;;;20.37;2.90;;;;;;;24.45;100.00;100485.41;5008231;28;20035;-48
2022/09/14 07:08:55;;;;;;;11.07;3.23;;;;;;;24.48;100.00;100487.53;4998963;28;20054;-47
2022/09/14 07:11:24;;;;;;;5.90;2.50;;;;;;;24.63;100.00;100491.09;4991357;28;20034;-52
2022/09/14 07:13:53;;;;;;;11.10;3.57;;;;;;;24.50;100.00;100487.22;5000597;28;20045;-53
2022/09/14 07:16:20;;;;;;;19.00;4.17;;;;;;;24.54;100.00;100484.69;4989943;28;20041;-49
2022/09/14 07:18:46;;;;;;;16.80;4.13;;;;;;;24.43;100.00;100484.06;4991919;28;20039;-51
2022/09/14 07:21:16;;;;;;;10.20;3.10;;;;;;;24.40;100.00;100476.47;4991264;28;20027;-50
2022/09/14 07:23:45;;;;;;;12.23;2.90;;;;;;;24.49;100.00;100470.00;4993041;28;20039;-48
2022/09/14 07:26:12;;;;;;;5.80;2.47;;;;;;;24.51;100.00;100466.97;5007059;28;20102;-48
2022/09/14 07:28:39;;;;;;;7.73;2.13;;;;;;;24.54;100.00;100465.56;4998584;28;20030;-49
2022/09/14 07:31:13;;;;;;;10.37;3.17;;;;;;;24.52;100.00;100462.31;4990742;28;20098;-50
2022/09/14 07:33:38;;;;;;;14.60;2.30;;;;;;;24.57;100.00;100467.69;4990618;28;20027;-51
2022/09/14 07:36:08;;;;;;;8.95;2.58;;;;;;;24.47;100.00;100471.41;5018231;28;20042;-47
2022/09/14 07:38:34;;;;;;;12.43;3.03;;;;;;;24.43;100.00;100471.19;4987625;28;20077;-49
2022/09/14 07:41:00;;;;;;;9.85;2.72;;;;;;;24.60;100.00;100473.38;4993510;28;20030;-52
2022/09/14 07:43:27;;;;;;;7.27;2.60;;;;;;;24.55;100.00;100472.66;4994345;28;20098;-48
2022/09/14 07:45:54;;;;;;;17.23;3.43;;;;;;;24.55;100.00;100469.94;4998339;28;20031;-48
2022/09/14 07:48:19;;;;;;;13.63;3.20;;;;;;;24.35;100.00;100474.59;4973226;28;20123;-48
2022/09/14 07:50:45;;;;;;;13.23;3.05;;;;;;;24.54;100.00;100477.28;4989794;28;20039;-48
2022/09/14 07:53:10;;;;;;;9.57;3.25;;;;;;;24.71;100.00;100478.66;4976648;28;20043;-53
2022/09/14 07:55:40;;;;;;;9.80;2.93;;;;;;;24.87;100.00;100481.97;4973211;28;20043;-50
2022/09/14 07:58:06;;;;;;;24.87;4.13;;;;;;;24.60;100.00;100478.03;4977940;28;20274;-48
2022/09/14 08:00:32;;;;;;;19.10;3.42;;;;;;;24.71;100.00;100470.47;4971425;28;20031;-47
2022/09/14 08:02:58;;;;;;;13.18;3.33;;;;;;;24.42;100.00;100468.78;4997183;28;20044;-49
2022/09/14 08:05:25;;;;;;;20.07;3.00;;;;;;;24.57;100.00;100475.91;4985506;28;20078;-49
2022/09/14 08:07:54;;;;;;;27.75;9.95;;;;;;;24.51;100.00;100474.38;4985253;28;20047;-50
2022/09/14 08:10:22;;;;;;;14.93;3.47;;;;;;;24.40;100.00;100466.31;4976426;28;20106;-47
2022/09/14 08:12:52;;;;;;;24.63;6.13;;;;;;;24.57;100.00;100475.91;4974253;28;20054;-48
2022/09/14 08:15:19;;;;;;;27.03;4.17;;;;;;;24.49;100.00;100469.19;4976124;28;20046;-48
2022/09/14 08:17:46;;;;;;;13.83;3.50;;;;;;;24.47;100.00;100466.78;4994681;28;20099;-45
2022/09/14 08:20:12;;;;;;;18.53;3.93;;;;;;;24.54;100.00;100465.56;4976553;28;20035;-48
2022/09/14 08:22:38;;;;;;;16.50;4.00;;;;;;;24.36;100.00;100469.97;4978925;28;20077;-49
2022/09/14 08:25:04;;;;;;;16.23;3.85;;;;;;;24.54;100.00;100468.31;4973681;28;20062;-48
2022/09/14 08:27:30;;;;;;;11.32;4.53;;;;;;;24.35;100.00;100466.41;4979385;28;20036;-48
2022/09/14 08:29:55;;;;;;;6.63;3.20;;;;;;;24.29;100.00;100468.41;4985639;28;20053;-47
2022/09/14 08:32:20;;;;;;;13.40;3.50;;;;;;;24.54;100.00;100473.78;4984444;28;20182;-49
2022/09/14 08:34:46;;;;;;;11.37;3.90;;;;;;;24.38;100.00;100465.03;4997348;28;20070;-48
2022/09/14 08:37:12;;;;;;;9.48;3.45;;;;;;;24.57;100.00;100459.50;4986732;28;20043;-48
2022/09/14 08:39:38;;;;;;;18.05;4.22;;;;;;;24.29;100.00;100443.03;4979828;28;20046;-49
2022/09/14 08:42:05;;;;;;;7.13;4.18;;;;;;;24.55;100.00;100448.06;4995803;28;20044;-49
2022/09/14 08:44:45;;;;;;;11.03;4.50;;;;;;;24.45;100.00;100458.06;4982996;28;20098;-53
2022/09/14 08:47:18;;;;;;;10.93;4.33;;;;;;;24.49;100.00;100453.63;4982721;28;20053;-46
2022/09/14 08:49:50;;;;;;;14.27;4.17;;;;;;;24.63;100.00;100455.56;5003208;28;20139;-48
2022/09/14 08:52:28;;;;;;;11.80;4.50;;;;;;;24.68;100.00;100451.94;5002912;28;20041;-52
2022/09/14 08:54:59;;;;;;;11.17;4.40;;;;;;;25.11;100.00;100461.84;5012718;28;20088;-53
2022/09/14 08:57:31;;;;;;;11.37;3.90;;;;;;;24.96;100.00;100461.03;4991134;28;20077;-48
2022/09/14 09:00:13;;;;;;;6.87;3.70;;;;;;;25.24;100.00;100460.22;5011989;28;20065;-51
2022/09/14 09:03:03;;;;;;;9.60;4.40;;;;;;;25.01;100.00;100460.94;4991367;28;20050;-45
2022/09/14 09:05:53;;;;;;;12.70;3.57;;;;;;;25.35;100.00;100462.44;4993584;28;20043;-46
2022/09/14 09:08:28;;;;;;;10.20;3.83;;;;;;;25.24;100.00;100461.03;5002672;28;20054;-54
2022/09/14 09:10:58;;;;;;;17.77;4.53;;;;;;;25.28;100.00;100453.03;5013991;28;20035;-56
2022/09/14 09:13:28;;;;;;;12.77;3.60;;;;;;;25.46;100.00;100451.31;4991126;28;20042;-49
2022/09/14 09:15:58;;;;;;;11.67;3.60;;;;;;;25.34;100.00;100449.88;4993142;28;20104;-51
2022/09/14 09:18:41;;;;;;;13.00;3.13;;;;;;;25.09;100.00;100448.47;4992956;28;20038;-51
2022/09/14 09:21:14;;;;;;;9.13;2.07;;;;;;;24.74;100.00;100448.81;5002584;28;20057;-50
2022/09/14 09:23:41;;;;;;;7.57;2.17;;;;;;;25.13;100.00;100444.03;4991961;28;20054;-52
2022/09/14 09:26:39;;;;;;;8.93;2.30;;;;;;;24.94;100.00;100446.03;5012682;28;20038;-48
2022/09/14 09:29:08;;;;;;;8.75;2.80;;;;;;;25.01;100.00;100443.69;5011097;28;20042;-48
2022/09/14 09:31:55;;;;;;;11.47;3.27;;;;;;;25.12;100.00;100447.03;5013730;28;20124;-52
2022/09/14 09:34:40;;;;;;;;;;;;;;;24.91;100.00;100453.72;4999059;28;20030;-49
2022/09/14 09:37:14;;;;;;;9.47;2.80;;;;;;;24.85;100.00;100451.38;5011433;28;19974;-53
2022/09/14 09:39:41;;;;;;;9.37;3.33;;;;;;;25.24;100.00;100454.75;5007874;28;20056;-50
2022/09/14 09:42:11;;;;;;;;;;;;;;;25.34;100.00;100449.88;4991365;28;20053;-48
2022/09/14 09:44:53;;;;;;;16.73;3.67;;;;;;;25.19;100.00;100453.75;4999266;28;19914;-48
2022/09/14 09:47:27;;;;;;;7.90;2.90;;;;;;;25.21;100.00;100442.50;4996510;28;20074;-47
2022/09/14 09:49:59;;;;;;;17.90;3.93;;;;;;;25.03;100.00;100452.44;4999120;28;20035;-53
2022/09/14 09:52:26;;;;;;;14.77;3.10;;;;;;;25.47;100.00;100451.00;5003988;28;20028;-51
2022/09/14 09:54:54;;;;;;;9.23;3.60;;;;;;;25.17;100.00;100461.44;5009010;28;20043;-48
2022/09/14 09:57:35;;;;;;;33.83;9.77;;;;;;;25.34;100.00;100457.28;4998287;28;20058;-50
2022/09/14 10:00:10;;;;;;;9.47;4.07;;;;;;;25.43;100.00;100458.19;5000382;28;20050;-50
2022/09/14 10:02:38;;;;;;;11.10;4.00;;;;;;;25.67;100.00;100456.38;5025993;28;20039;-53
2022/09/14 10:05:32;;;;;;;11.05;3.25;;;;;;;25.56;100.00;100451.09;5020375;28;20027;-53
2022/09/14 10:08:01;;;;;;;9.80;3.97;;;;;;;25.59;100.00;100452.44;5019670;28;20039;-50
2022/09/14 10:10:32;;;;;;;8.17;3.60;;;;;;;25.92;100.00;100457.72;5001630;28;20030;-52
2022/09/14 10:12:58;;;;;;;9.13;3.37;;;;;;;25.95;100.00;100453.56;4991206;28;20035;-53
2022/09/14 10:15:29;;;;;;;12.07;3.45;;;;;;;25.67;100.00;100451.69;5014856;28;20032;-53
2022/09/14 10:18:10;;;;;;;12.23;3.70;;;;;;;25.74;100.00;100454.84;5008436;28;20033;-49
2022/09/14 10:20:41;;;;;;;14.10;3.80;;;;;;;25.96;100.00;100452.44;5004826;28;20034;-51
2022/09/14 10:23:16;;;;;;;7.40;3.03;;;;;;;25.82;100.00;100445.06;5007776;28;20061;-52
2022/09/14 10:25:43;;;;;;;9.13;3.63;;;;;;;25.91;100.00;100454.19;5005916;28;20034;-49
2022/09/14 10:28:30;;;;;;;15.80;6.33;;;;;;;25.56;100.00;100453.03;5006661;28;20030;-48
2022/09/14 10:31:33;;;;;;;12.65;3.60;;;;;;;25.94;100.00;100457.41;4991610;28;20035;-51
2022/09/14 10:33:59;;;;;;;14.63;3.67;;;;;;;25.78;100.00;100452.28;5019088;28;20045;-49
2022/09/14 10:36:30;;;;;;;15.00;4.37;;;;;;;25.49;100.00;100447.97;5004244;28;20100;-47
2022/09/14 10:39:25;;;;;;;13.87;5.40;;;;;;;25.38;100.00;100450.09;4989373;28;20039;-52
2022/09/14 10:42:09;;;;;;;10.47;4.00;;;;;;;25.48;100.00;100451.84;5001352;28;20062;-52
2022/09/14 10:44:52;;;;;;;15.93;4.03;;;;;;;25.55;100.00;100449.47;5010213;28;20027;-52
2022/09/14 10:47:36;;;;;;;9.40;4.33;;;;;;;25.75;100.00;100452.91;4993352;28;20062;-50
2022/09/14 10:50:23;;;;;;;10.93;3.63;;;;;;;25.96;100.00;100449.69;4996584;28;20299;-52
2022/09/14 10:52:59;;;;;;;9.05;3.92;;;;;;;26.05;100.00;100445.91;5007380;28;20078;-51
2022/09/14 10:56:01;;;;;;;10.87;4.30;;;;;;;26.04;100.00;100447.03;4994848;28;20039;-52
2022/09/14 10:58:49;;;;;;;11.57;3.67;;;;;;;25.81;100.00;100446.19;5013972;28;20104;-49
2022/09/14 11:01:39;;;;;;;7.20;3.70;;;;;;;25.95;100.00;100448.06;5010760;28;20045;-49
2022/09/14 11:04:30;;;;;;;8.07;3.57;;;;;;;25.82;100.00;100442.31;5004514;28;20037;-51
2022/09/14 11:07:05;;;;;;;8.50;3.93;;;;;;;25.79;100.00;100442.94;4997612;28;20039;-50
2022/09/14 11:10:04;;;;;;;8.73;3.93;;;;;;;25.57;100.00;100443.72;5028082;28;20425;-51
2022/09/14 11:12:59;;;;;;;10.07;4.10;;;;;;;25.79;100.00;100448.41;4999289;28;20023;-51
2022/09/14 11:15:42;;;;;;;13.63;3.90;;;;;;;25.88;100.00;100449.31;5000851;28;20037;-52
2022/09/14 11:18:17;;;;;;;10.27;3.83;;;;;;;26.14;100.00;100458.84;5000878;28;20090;-51
2022/09/14 11:21:10;;;;;;;10.33;3.33;;;;;;;25.80;100.00;100455.50;4990216;28;20050;-50
2022/09/14 11:23:53;;;;;;;22.03;9.80;;;;;;;25.71;100.00;100451.91;4975831;28;20043;-51
2022/09/14 11:26:46;;;;;;;10.30;4.83;;;;;;;25.66;100.00;100461.03;4997186;28;20045;-50
2022/09/14 11:29:22;;;;;;;8.07;3.83;;;;;;;25.90;100.00;100466.25;5007600;28;20034;-52
2022/09/14 11:31:58;;;;;;;11.32;4.57;;;;;;;25.86;100.00;100468.00;5001723;28;20122;-47
2022/09/14 11:34:41;;;;;;;14.77;5.57;;;;;;;26.15;100.00;100464.03;4994094;28;20035;-51